createdAt,value
2022-10-02T00:01:47.519Z,0.70
2022-10-02T00:06:53.361Z,0.75
2022-10-02T00:11:58.701Z,0.40
2022-10-02T00:17:01.766Z,0.70
2022-10-02T00:22:45.592Z,0.60
2022-10-02T00:28:38.307Z,0.60
2022-10-02T00:34:22.286Z,0.43
2022-10-02T00:39:40.385Z,0.98
2022-10-02T00:45:16.154Z,0.80
2022-10-02T00:50:20.461Z,0.50
2022-10-02T00:55:44.553Z,0.60
2022-10-02T01:00:59.412Z,0.88
2022-10-02T01:06:01.247Z,1.15
2022-10-02T01:11:04.084Z,1.02
2022-10-02T01:16:14.340Z,1.02
2022-10-02T01:21:32.813Z,1.33
2022-10-02T01:26:34.903Z,1.00
2022-10-02T01:31:37.449Z,0.43
2022-10-02T01:36:39.524Z,0.90
2022-10-02T01:41:44.668Z,0.93
2022-10-02T01:47:07.702Z,0.93
2022-10-02T01:52:20.368Z,0.90
2022-10-02T01:57:37.382Z,1.40
2022-10-02T02:03:07.447Z,0.90
2022-10-02T02:08:50.827Z,0.95
2022-10-02T02:13:56.490Z,0.77
2022-10-02T02:19:02.431Z,0.90
2022-10-02T02:24:11.648Z,1.27
2022-10-02T02:29:16.903Z,0.85
2022-10-02T02:34:30.809Z,0.85
2022-10-02T02:39:40.629Z,0.73
2022-10-02T02:44:52.754Z,0.60
2022-10-02T02:50:03.660Z,1.15
2022-10-02T02:55:14.858Z,0.75
2022-10-02T03:00:17.671Z,1.17
2022-10-02T03:05:19.715Z,0.55
2022-10-02T03:10:37.335Z,0.90
2022-10-02T03:15:57.662Z,0.65
2022-10-02T03:21:08.327Z,1.08
2022-10-02T03:26:21.532Z,0.63
2022-10-02T03:31:27.097Z,0.73
2022-10-02T03:36:29.118Z,0.95
2022-10-02T03:41:30.989Z,1.17
2022-10-02T03:46:33.321Z,1.00
2022-10-02T03:51:35.546Z,1.13
2022-10-02T03:56:44.054Z,0.85
2022-10-02T04:01:50.976Z,0.73
2022-10-02T04:07:19.658Z,1.23
2022-10-02T04:12:33.178Z,1.10
2022-10-02T04:17:44.955Z,1.20
2022-10-02T04:23:03.954Z,0.60
2022-10-02T04:28:11.834Z,0.75
2022-10-02T04:33:18.150Z,0.98
2022-10-02T04:38:33.920Z,0.47
2022-10-02T04:44:00.461Z,0.60
2022-10-02T04:49:46.397Z,0.52
2022-10-02T04:55:18.839Z,0.60
2022-10-02T05:00:22.984Z,0.80
2022-10-02T05:05:30.661Z,0.70
2022-10-02T05:10:44.131Z,0.90
2022-10-02T05:15:52.138Z,1.10
2022-10-02T05:21:17.753Z,0.68
2022-10-02T05:26:38.103Z,0.60
2022-10-02T05:32:15.909Z,0.80
2022-10-02T05:37:23.618Z,0.55
2022-10-02T05:42:34.083Z,0.40
2022-10-02T05:47:41.613Z,0.60
2022-10-02T05:53:01.763Z,0.60
2022-10-02T05:58:07.292Z,0.80
2022-10-02T06:03:31.346Z,0.60
2022-10-02T06:08:36.244Z,0.70
2022-10-02T06:13:58.052Z,0.60
2022-10-02T06:19:19.966Z,0.60
2022-10-02T06:24:44.290Z,0.90
2022-10-02T06:29:51.355Z,0.73
2022-10-02T06:34:53.416Z,0.43
2022-10-02T06:40:32.580Z,1.00
2022-10-02T06:45:59.143Z,0.93
2022-10-02T06:51:22.846Z,1.35
2022-10-02T06:57:01.390Z,0.85
2022-10-02T07:02:17.758Z,0.60
2022-10-02T07:07:39.460Z,1.40
2022-10-02T07:13:18.212Z,0.85
2022-10-02T07:18:42.865Z,0.80
2022-10-02T07:24:02.661Z,1.20
2022-10-02T07:29:20.768Z,0.95
2022-10-02T07:34:36.259Z,0.85
2022-10-02T07:40:03.465Z,1.13
2022-10-02T07:45:23.492Z,1.88
2022-10-02T07:50:34.099Z,0.93
2022-10-02T07:55:41.743Z,1.42
2022-10-02T08:00:51.234Z,0.68
2022-10-02T08:05:55.506Z,0.77
2022-10-02T08:11:06.721Z,0.93
2022-10-02T08:16:10.849Z,0.80
2022-10-02T08:21:19.184Z,0.95
2022-10-02T08:26:25.199Z,0.80
2022-10-02T08:31:27.424Z,1.10
2022-10-02T08:36:47.245Z,1.42
2022-10-02T08:42:04.442Z,1.77
2022-10-02T08:47:44.295Z,0.90
2022-10-02T08:53:04.368Z,1.52
2022-10-02T08:58:22.477Z,1.23
2022-10-02T09:03:59.051Z,0.60
2022-10-02T09:09:55.240Z,1.42
2022-10-02T09:15:22.666Z,1.40
2022-10-02T09:21:02.198Z,2.20
2022-10-02T09:26:44.815Z,1.48
2022-10-02T09:33:00.110Z,1.55
2022-10-02T09:38:06.310Z,0.73
2022-10-02T09:43:20.622Z,1.20
2022-10-02T09:49:11.440Z,1.40
2022-10-02T09:54:38.141Z,2.45
2022-10-02T09:59:45.831Z,1.25
2022-10-02T10:05:26.198Z,2.35
2022-10-02T10:10:33.811Z,1.27
2022-10-02T10:16:06.214Z,1.40
2022-10-02T10:21:26.816Z,1.20
2022-10-02T10:26:56.929Z,1.38
2022-10-02T10:32:07.900Z,0.77
2022-10-02T10:37:50.469Z,1.00
2022-10-02T10:43:33.658Z,0.98
2022-10-02T10:48:52.860Z,1.30
2022-10-02T10:54:16.148Z,0.93
2022-10-02T10:59:34.510Z,0.70
2022-10-02T11:05:03.420Z,0.85
2022-10-02T11:10:31.909Z,0.90
2022-10-02T11:15:59.471Z,1.10
2022-10-02T11:21:35.830Z,1.17
2022-10-02T11:27:11.584Z,1.00
2022-10-02T11:32:32.150Z,1.23
2022-10-02T11:37:52.485Z,1.58
2022-10-02T11:43:15.751Z,1.20
2022-10-02T11:48:41.590Z,1.70
2022-10-02T11:53:47.631Z,1.27
2022-10-02T11:59:10.940Z,1.40
2022-10-02T12:04:19.175Z,1.40
2022-10-02T12:09:42.747Z,2.90
2022-10-02T12:14:59.654Z,1.25
2022-10-02T12:20:38.798Z,0.88
2022-10-02T12:26:22.715Z,1.17
2022-10-02T12:31:45.825Z,1.52
2022-10-02T12:36:58.654Z,1.35
2022-10-02T12:42:37.543Z,1.40
2022-10-02T12:47:54.666Z,1.02
2022-10-02T12:53:27.328Z,1.23
2022-10-02T12:58:46.090Z,1.00
2022-10-02T13:04:22.582Z,0.85
2022-10-02T13:10:11.306Z,1.70
2022-10-02T13:15:23.657Z,1.13
2022-10-02T13:20:54.400Z,1.00
2022-10-02T13:26:13.543Z,1.20
2022-10-02T13:31:37.161Z,1.15
2022-10-02T13:36:56.049Z,0.98
2022-10-02T13:42:29.214Z,1.30
2022-10-02T13:47:41.911Z,0.90
2022-10-02T13:52:52.529Z,1.20
2022-10-02T13:58:12.529Z,1.52
2022-10-02T14:03:46.339Z,1.40
2022-10-02T14:09:08.911Z,1.20
2022-10-02T14:14:44.796Z,1.27
2022-10-02T14:20:11.281Z,1.40
2022-10-02T14:25:26.032Z,1.95
2022-10-02T14:30:52.287Z,2.30
2022-10-02T14:36:25.118Z,2.42
2022-10-02T14:41:38.846Z,2.05
2022-10-02T14:47:05.657Z,1.92
2022-10-02T14:52:26.266Z,1.50
2022-10-02T14:57:31.118Z,1.77
2022-10-02T15:02:54.413Z,1.45
2022-10-02T15:07:58.008Z,1.83
2022-10-02T15:13:14.666Z,1.10
2022-10-02T15:18:20.717Z,1.40
2022-10-02T15:23:44.793Z,1.48
2022-10-02T15:28:56.610Z,1.05
2022-10-02T15:34:32.485Z,1.40
2022-10-02T15:40:19.690Z,1.58
2022-10-02T15:45:42.463Z,1.13
2022-10-02T15:51:18.777Z,1.65
2022-10-02T15:56:35.733Z,1.33
2022-10-02T16:01:51.005Z,1.58
2022-10-02T16:06:53.845Z,3.35
2022-10-02T16:12:26.770Z,2.30
2022-10-02T16:17:57.657Z,2.42
2022-10-02T16:23:18.904Z,1.63
2022-10-02T16:28:23.463Z,1.80
2022-10-02T16:33:52.950Z,1.80
2022-10-02T16:39:16.214Z,2.20
2022-10-02T16:44:48.049Z,1.98
2022-10-02T16:49:58.358Z,2.90
2022-10-02T16:55:21.969Z,2.75
2022-10-02T17:00:40.080Z,2.40
2022-10-02T17:05:51.985Z,2.30
2022-10-02T17:11:14.910Z,2.10
2022-10-02T17:16:33.805Z,1.33
2022-10-02T17:21:38.485Z,1.95
2022-10-02T17:26:46.038Z,1.85
2022-10-02T17:31:56.300Z,2.05
2022-10-02T17:37:13.618Z,2.13
2022-10-02T17:42:41.474Z,1.90
2022-10-02T17:47:49.370Z,1.55
2022-10-02T17:53:20.717Z,1.42
2022-10-02T17:58:40.738Z,1.70
2022-10-02T18:04:03.034Z,1.25
2022-10-02T18:09:38.034Z,1.48
2022-10-02T18:14:51.910Z,1.83
2022-10-02T18:20:14.698Z,1.10
2022-10-02T18:25:33.103Z,1.23
2022-10-02T18:30:49.376Z,1.73
2022-10-02T18:36:06.521Z,1.52
2022-10-02T18:41:41.303Z,1.25
2022-10-02T18:47:02.725Z,1.63
2022-10-02T18:52:16.198Z,1.23
2022-10-02T18:57:37.746Z,0.88
2022-10-02T19:03:00.891Z,1.17
2022-10-02T19:08:05.454Z,0.88
2022-10-02T19:13:17.524Z,1.45
2022-10-02T19:18:29.838Z,1.42
2022-10-02T19:23:38.406Z,1.58
2022-10-02T19:28:51.458Z,0.98
2022-10-02T19:33:58.148Z,1.00
2022-10-02T19:39:07.873Z,1.05
2022-10-02T19:44:33.216Z,1.23
2022-10-02T19:49:40.271Z,0.80
2022-10-02T19:54:42.294Z,1.05
2022-10-02T19:59:54.395Z,1.67
2022-10-02T20:05:01.999Z,1.38
2022-10-02T20:10:26.734Z,1.48
2022-10-02T20:16:08.241Z,1.02
2022-10-02T20:21:30.424Z,0.80
2022-10-02T20:26:37.532Z,0.98
2022-10-02T20:31:50.012Z,0.90
2022-10-02T20:36:58.619Z,1.10
2022-10-02T20:42:25.496Z,1.30
2022-10-02T20:47:45.662Z,1.35
2022-10-02T20:53:18.765Z,0.98
2022-10-02T20:58:39.334Z,0.95
2022-10-02T21:09:48.183Z,0.82
2022-10-02T21:15:23.347Z,0.90
2022-10-02T21:20:49.613Z,1.05
2022-10-02T21:26:27.964Z,1.10
2022-10-02T21:31:41.822Z,1.15
2022-10-02T21:36:53.165Z,1.33
2022-10-02T21:42:18.051Z,1.05
2022-10-02T21:47:22.878Z,0.82
2022-10-02T21:52:43.604Z,1.20
2022-10-02T21:58:04.347Z,0.80
2022-10-02T22:03:31.255Z,0.95
2022-10-02T22:08:51.713Z,0.55
2022-10-02T22:13:58.042Z,0.73
2022-10-02T22:19:23.016Z,0.57
2022-10-02T22:24:30.747Z,0.95
2022-10-02T22:29:47.449Z,0.90
2022-10-02T22:35:14.612Z,0.55
2022-10-02T22:40:23.568Z,1.00
2022-10-02T22:45:44.869Z,1.30
2022-10-02T22:51:12.826Z,0.70
2022-10-02T22:56:28.989Z,0.77
2022-10-02T23:01:39.075Z,0.82
2022-10-02T23:06:56.119Z,0.57
2022-10-02T23:12:43.856Z,0.93
2022-10-02T23:18:22.195Z,0.60
2022-10-02T23:23:35.970Z,0.77
2022-10-02T23:28:46.598Z,0.55
2022-10-02T23:33:56.367Z,0.90
2022-10-02T23:39:06.632Z,0.70
2022-10-02T23:44:20.609Z,0.88
2022-10-02T23:49:27.655Z,1.05
2022-10-02T23:54:33.559Z,0.57
